Douglas B.gurian — WDH7352 — position and weather

sailwx.info

Track history (hours):
 
Tides and Currents Weather Stations Pressure Air Temp Water Temp Dewpoint Dewpoint Depression Visibility Wind Speed Wind Dir Waves Ship Positions

Douglas B.gurian

Owner: Port Imperial Ferry Corporation, Weehawken, NJ. More information available from US FCC via Universal Licensing System and Coast Guard Vessel Documentation Center.

Last reported at 2018-Jul-20 14:40 UTC. Time now 2018-Jul-20 20:31 UTC.
Position N 40°46' W 074°01'.

Length 21 m; draft 2 m.

Type: Passenger vessel. MMSI: 366834170.

Date/timePositionNaut miles runAvg speedWind from/ knotsBaromVisibWave heightAir tempDewpointWater temp
2018-Jul-20 14:40N 40°46' W 074°01'0 0.0
2018-Jul-20 14:24N 40°46' W 074°01'0 0.0
2018-Jul-20 13:59N 40°46' W 074°01'0 0.0
2018-Jul-20 13:28N 40°46' W 074°01'0 0.4
2018-Jul-20 13:00N 40°46' W 074°00'0 0.4
2018-Jul-20 12:31N 40°47' W 074°01'0 0.0
2018-Jul-20 11:58N 40°47' W 074°01'0 0.0
2018-Jul-20 11:30N 40°47' W 074°01'0 0.7
2018-Jul-20 11:00N 40°46' W 074°01'0 0.0
2018-Jul-19 21:53N 40°46' W 074°01'3 8.9
2018-Jul-19 21:30N 40°43' W 074°01'  
2018-Jul-16 13:31N 40°46' W 074°01'0 3.6
2018-Jul-16 13:28N 40°46' W 074°01'0 0.1
2018-Jul-16 13:00N 40°46' W 074°01'0 0.0
2018-Jul-16 12:25N 40°46' W 074°01'0 0.0
2018-Jul-16 11:59N 40°46' W 074°01'1 0.0
2018-Jul-15 18:18N 40°46' W 074°01'410.4
2018-Jul-15 17:57N 40°42' W 074°00'4 0.1
2018-Jul-13 23:35N 40°46' W 074°01'113.4
2018-Jul-13 23:30N 40°45' W 074°01'1 1.1
2018-Jul-13 22:57N 40°46' W 074°00'2 4.0
2018-Jul-13 22:31N 40°44' W 074°02'2 3.2
2018-Jul-13 21:57N 40°46' W 074°00'2 4.1
2018-Jul-13 21:30N 40°44' W 074°02'2 3.3
2018-Jul-13 20:58N 40°46' W 074°00'2 3.9
2018-Jul-13 20:30N 40°44' W 074°02'2 3.4
2018-Jul-13 19:59N 40°46' W 074°00'1 0.4
2018-Jul-13 18:02N 40°46' W 074°01'0 0.6
2018-Jul-13 17:59N 40°46' W 074°01'815.8
2018-Jul-13 17:30N 40°39' W 074°02'6 1.0
2018-Jul-13 11:52N 40°33' W 074°03'0 0.6
2018-Jul-13 11:31N 40°33' W 074°03'1324.9
2018-Jul-13 11:00N 40°45' W 074°01'1 0.1
2018-Jul-12 20:10N 40°46' W 074°01'0 0.3
2018-Jul-12 20:00N 40°46' W 074°01'0 0.0
2018-Jul-12 19:30N 40°46' W 074°01'0 0.0
2018-Jul-12 18:58N 40°46' W 074°01'0 0.0
2018-Jul-12 18:30N 40°46' W 074°01'0 0.0
2018-Jul-12 18:00N 40°46' W 074°01'0 0.0
2018-Jul-12 12:53N 40°46' W 074°01'0 0.0
2018-Jul-12 12:26N 40°46' W 074°01'0 0.1
2018-Jul-12 12:00N 40°46' W 074°01'0 0.1
2018-Jul-12 11:28N 40°46' W 074°01'0 0.0
2018-Jul-12 11:00N 40°46' W 074°01'0 0.0
2018-Jul-12 10:30N 40°46' W 074°01'0 0.0
2018-Jul-12 10:00N 40°46' W 074°01'0 0.0
2018-Jul-12 09:30N 40°46' W 074°01'0 0.0
2018-Jul-12 09:00N 40°46' W 074°01'0 0.0
2018-Jul-12 08:30N 40°46' W 074°01'0 0.0
2018-Jul-12 08:00N 40°46' W 074°01'0 0.0
2018-Jul-12 07:30N 40°46' W 074°01'0 0.0
2018-Jul-12 07:00N 40°46' W 074°01'0 0.0
2018-Jul-12 06:30N 40°46' W 074°01'0 0.0
2018-Jul-12 06:00N 40°46' W 074°01'0 0.0
2018-Jul-12 05:30N 40°46' W 074°01'0 0.0
2018-Jul-12 05:00N 40°46' W 074°01'0 0.0
2018-Jul-12 04:30N 40°46' W 074°01'0 0.0
2018-Jul-12 04:00N 40°46' W 074°01'0 0.0
2018-Jul-12 03:30N 40°46' W 074°01'0 0.0
2018-Jul-12 03:00N 40°46' W 074°01'0 0.0
2018-Jul-12 02:30N 40°46' W 074°01'0 0.0
2018-Jul-12 02:00N 40°46' W 074°01'0 0.0
2018-Jul-12 01:30N 40°46' W 074°01'0 0.0
2018-Jul-12 01:00N 40°46' W 074°01'0 0.0
2018-Jul-12 00:29N 40°46' W 074°01'0 0.0
2018-Jul-12 00:00N 40°46' W 074°01'0 0.0
2018-Jul-11 23:30N 40°46' W 074°01'0 0.0
2018-Jul-11 23:00N 40°46' W 074°01'0 0.0
2018-Jul-11 22:30N 40°46' W 074°01'0 0.0
2018-Jul-11 22:00N 40°46' W 074°01'0 0.0
2018-Jul-11 20:43N 40°46' W 074°01'312.2
2018-Jul-11 20:30N 40°44' W 074°01'2 3.7
2018-Jul-11 20:01N 40°42' W 074°00'1 2.9
2018-Jul-11 19:30N 40°43' W 074°02'1 2.8
2018-Jul-11 19:01N 40°42' W 074°00'1 2.8
2018-Jul-11 18:31N 40°43' W 074°02'1 2.8
2018-Jul-11 18:00N 40°42' W 074°00'2 4.3
2018-Jul-11 17:30N 40°44' W 074°02'2 0.6
2018-Jul-11 13:59N 40°46' W 074°01'612.2
2018-Jul-11 13:30N 40°41' W 074°05'1 2.3
2018-Jul-11 13:01N 40°41' W 074°03'2 3.3
2018-Jul-11 12:30N 40°41' W 074°01'1 1.5
2018-Jul-11 12:01N 40°42' W 074°01'2 3.3
2018-Jul-11 11:30N 40°41' W 074°02'1 2.4
2018-Jul-11 11:01N 40°41' W 074°04'1 1.3
2018-Jul-11 10:30N 40°41' W 074°04'0 0.2
2018-Jul-11 09:59N 40°41' W 074°05'0 0.0
2018-Jul-10 23:44N 40°41' W 074°04'313.5
2018-Jul-10 23:30N 40°42' W 074°01'2 3.2
2018-Jul-10 23:00N 40°41' W 074°02'1 2.7
2018-Jul-10 22:30N 40°41' W 074°04'0 0.4
2018-Jul-10 21:58N 40°41' W 074°04'1 1.8
2018-Jul-10 21:30N 40°41' W 074°04'1 2.3
2018-Jul-10 21:00N 40°41' W 074°02'1 2.9
2018-Jul-10 20:30N 40°42' W 074°01'0 0.1
2018-Jul-10 20:00N 40°42' W 074°01'3 5.9
2018-Jul-10 19:30N 40°41' W 074°04'  
Track history (hours):
 
Tides and Currents Weather Stations Pressure Air Temp Water Temp Dewpoint Dewpoint Depression Visibility Wind Speed Wind Dir Waves Ship Positions

Douglas B.gurian

Owner: Port Imperial Ferry Corporation, Weehawken, NJ. More information available from US FCC via Universal Licensing System and Coast Guard Vessel Documentation Center.

Last reported at 2018-Jul-20 14:40 UTC. Time now 2018-Jul-20 20:31 UTC.
Position N 40°46' W 074°01'.

Length 21 m; draft 2 m.

Type: Passenger vessel. MMSI: 366834170.

Date/timePositionNaut miles runAvg speedWind from/ knotsBaromVisibWave heightAir tempDewpointWater temp
2018-Jul-20 14:40N 40°46' W 074°01'0 0.0
2018-Jul-20 14:24N 40°46' W 074°01'0 0.0
2018-Jul-20 13:59N 40°46' W 074°01'0 0.0
2018-Jul-20 13:28N 40°46' W 074°01'0 0.4
2018-Jul-20 13:00N 40°46' W 074°00'0 0.4
2018-Jul-20 12:31N 40°47' W 074°01'0 0.0
2018-Jul-20 11:58N 40°47' W 074°01'0 0.0
2018-Jul-20 11:30N 40°47' W 074°01'0 0.7
2018-Jul-20 11:00N 40°46' W 074°01'0 0.0
2018-Jul-19 21:53N 40°46' W 074°01'3 8.9
2018-Jul-19 21:30N 40°43' W 074°01'  
2018-Jul-16 13:31N 40°46' W 074°01'0 3.6
2018-Jul-16 13:28N 40°46' W 074°01'0 0.1
2018-Jul-16 13:00N 40°46' W 074°01'0 0.0
2018-Jul-16 12:25N 40°46' W 074°01'0 0.0
2018-Jul-16 11:59N 40°46' W 074°01'1 0.0
2018-Jul-15 18:18N 40°46' W 074°01'410.4
2018-Jul-15 17:57N 40°42' W 074°00'4 0.1
2018-Jul-13 23:35N 40°46' W 074°01'113.4
2018-Jul-13 23:30N 40°45' W 074°01'1 1.1
2018-Jul-13 22:57N 40°46' W 074°00'2 4.0
2018-Jul-13 22:31N 40°44' W 074°02'2 3.2
2018-Jul-13 21:57N 40°46' W 074°00'2 4.1
2018-Jul-13 21:30N 40°44' W 074°02'2 3.3
2018-Jul-13 20:58N 40°46' W 074°00'2 3.9
2018-Jul-13 20:30N 40°44' W 074°02'2 3.4
2018-Jul-13 19:59N 40°46' W 074°00'1 0.4
2018-Jul-13 18:02N 40°46' W 074°01'0 0.6
2018-Jul-13 17:59N 40°46' W 074°01'815.8
2018-Jul-13 17:30N 40°39' W 074°02'6 1.0
2018-Jul-13 11:52N 40°33' W 074°03'0 0.6
2018-Jul-13 11:31N 40°33' W 074°03'1324.9
2018-Jul-13 11:00N 40°45' W 074°01'1 0.1
2018-Jul-12 20:10N 40°46' W 074°01'0 0.3
2018-Jul-12 20:00N 40°46' W 074°01'0 0.0
2018-Jul-12 19:30N 40°46' W 074°01'0 0.0
2018-Jul-12 18:58N 40°46' W 074°01'0 0.0
2018-Jul-12 18:30N 40°46' W 074°01'0 0.0
2018-Jul-12 18:00N 40°46' W 074°01'0 0.0
2018-Jul-12 12:53N 40°46' W 074°01'0 0.0
2018-Jul-12 12:26N 40°46' W 074°01'0 0.1
2018-Jul-12 12:00N 40°46' W 074°01'0 0.1
2018-Jul-12 11:28N 40°46' W 074°01'0 0.0
2018-Jul-12 11:00N 40°46' W 074°01'0 0.0
2018-Jul-12 10:30N 40°46' W 074°01'0 0.0
2018-Jul-12 10:00N 40°46' W 074°01'0 0.0
2018-Jul-12 09:30N 40°46' W 074°01'0 0.0
2018-Jul-12 09:00N 40°46' W 074°01'0 0.0
2018-Jul-12 08:30N 40°46' W 074°01'0 0.0
2018-Jul-12 08:00N 40°46' W 074°01'0 0.0
2018-Jul-12 07:30N 40°46' W 074°01'0 0.0
2018-Jul-12 07:00N 40°46' W 074°01'0 0.0
2018-Jul-12 06:30N 40°46' W 074°01'0 0.0
2018-Jul-12 06:00N 40°46' W 074°01'0 0.0
2018-Jul-12 05:30N 40°46' W 074°01'0 0.0
2018-Jul-12 05:00N 40°46' W 074°01'0 0.0
2018-Jul-12 04:30N 40°46' W 074°01'0 0.0
2018-Jul-12 04:00N 40°46' W 074°01'0 0.0
2018-Jul-12 03:30N 40°46' W 074°01'0 0.0
2018-Jul-12 03:00N 40°46' W 074°01'0 0.0
2018-Jul-12 02:30N 40°46' W 074°01'0 0.0
2018-Jul-12 02:00N 40°46' W 074°01'0 0.0
2018-Jul-12 01:30N 40°46' W 074°01'0 0.0
2018-Jul-12 01:00N 40°46' W 074°01'0 0.0
2018-Jul-12 00:29N 40°46' W 074°01'0 0.0
2018-Jul-12 00:00N 40°46' W 074°01'0 0.0
2018-Jul-11 23:30N 40°46' W 074°01'0 0.0
2018-Jul-11 23:00N 40°46' W 074°01'0 0.0
2018-Jul-11 22:30N 40°46' W 074°01'0 0.0
2018-Jul-11 22:00N 40°46' W 074°01'0 0.0
2018-Jul-11 20:43N 40°46' W 074°01'312.2
2018-Jul-11 20:30N 40°44' W 074°01'2 3.7
2018-Jul-11 20:01N 40°42' W 074°00'1 2.9
2018-Jul-11 19:30N 40°43' W 074°02'1 2.8
2018-Jul-11 19:01N 40°42' W 074°00'1 2.8
2018-Jul-11 18:31N 40°43' W 074°02'1 2.8
2018-Jul-11 18:00N 40°42' W 074°00'2 4.3
2018-Jul-11 17:30N 40°44' W 074°02'2 0.6
2018-Jul-11 13:59N 40°46' W 074°01'612.2
2018-Jul-11 13:30N 40°41' W 074°05'1 2.3
2018-Jul-11 13:01N 40°41' W 074°03'2 3.3
2018-Jul-11 12:30N 40°41' W 074°01'1 1.5
2018-Jul-11 12:01N 40°42' W 074°01'2 3.3
2018-Jul-11 11:30N 40°41' W 074°02'1 2.4
2018-Jul-11 11:01N 40°41' W 074°04'1 1.3
2018-Jul-11 10:30N 40°41' W 074°04'0 0.2
2018-Jul-11 09:59N 40°41' W 074°05'0 0.0
2018-Jul-10 23:44N 40°41' W 074°04'313.5
2018-Jul-10 23:30N 40°42' W 074°01'2 3.2
2018-Jul-10 23:00N 40°41' W 074°02'1 2.7
2018-Jul-10 22:30N 40°41' W 074°04'0 0.4
2018-Jul-10 21:58N 40°41' W 074°04'1 1.8
2018-Jul-10 21:30N 40°41' W 074°04'1 2.3
2018-Jul-10 21:00N 40°41' W 074°02'1 2.9
2018-Jul-10 20:30N 40°42' W 074°01'0 0.1
2018-Jul-10 20:00N 40°42' W 074°01'3 5.9
2018-Jul-10 19:30N 40°41' W 074°04'  

Dump ship's entire track history